Flight Track Log - Related Links

Times and Time Zones

All times are in EDT time to prevent confusion due to time zone crossing. See the SWA914 flight status page for this flight to view local times or setup timezone preferences in your user account.


Time Position Orientation Groundspeed Altitude Reporting Facility
EDT Latitude Longitude Course Direction KTS MPH feet Rate Location/Type
Sat 08:51:40 PM 32.7928 -117.3331 298° West 231 266 5,500  Level Los Angeles Center
Sat 08:52:42 PM 32.8089 -117.4217 282° West 264 304 8,700 2,585 Climbing Los Angeles Center
Sat 08:53:43 PM 32.8306 -117.5106 286° West 275 316 10,800 2,293 Climbing Los Angeles Center
Sat 08:54:45 PM 32.8961 -117.5903 314° West 339 390 13,400 2,468 Climbing Los Angeles Center
Sat 08:55:47 PM 32.9767 -117.6581 325° Northwest 353 406 15,900 2,341 Climbing Los Angeles Center
Sat 08:56:48 PM 33.0592 -117.7311 323° Northwest 363 418 18,200 2,146 Climbing Los Angeles Center
Sat 08:57:50 PM 33.1439 -117.8039 324° Northwest 371 427 20,300 1,951 Climbing Los Angeles Center
Sat 08:58:51 PM 33.2419 -117.9033 320° Northwest 381 438 22,200 1,756 Climbing Los Angeles Center
Sat 08:59:53 PM 33.3447 -117.9622 334° Northwest 403 464 23,900 1,561 Climbing Los Angeles Center
Sat 09:00:54 PM 33.4489 -118.0247 333° Northwest 413 475 25,400 1,366 Climbing Los Angeles Center
Sat 09:01:56 PM 33.5528 -118.0886 333° Northwest 418 481 26,700 1,171 Climbing Los Angeles Center
Sat 09:02:57 PM 33.6633 -118.1553 333° Northwest 433 498 27,800 1,366 Climbing Los Angeles Center
Sat 09:03:59 PM 33.7678 -118.2181 333° Northwest 439 505 29,500 1,902 Climbing Los Angeles Center
Sat 09:05:00 PM 33.8878 -118.2928 333° Northwest 415 478 31,700 1,230 Climbing Los Angeles Center
Sat 09:06:01 PM 33.9872 -118.3544 333° Northwest 407 468 32,000 146 Climbing Los Angeles Center
Sat 09:07:03 PM 34.0883 -118.4167 333° Northwest 408 470 32,000  Level Los Angeles Center
Sat 09:08:04 PM 34.1894 -118.4792 333° Northwest 408 470 32,000  Level Los Angeles Center
Sat 09:09:06 PM 34.2914 -118.5425 333° Northwest 409 471 32,000  Level Los Angeles Center
Sat 09:10:07 PM 34.3947 -118.6069 333° Northwest 413 475 32,000  Level Los Angeles Center
Sat 09:11:08 PM 34.5192 -118.6853 333° Northwest 419 482 32,000  Level Los Angeles Center
Sat 09:12:10 PM 34.6222 -118.7500 333° Northwest 418 481 32,000  Level Los Angeles Center
Sat 09:13:11 PM 34.7269 -118.8150 333° Northwest 422 486 32,000  Level Los Angeles Center
Sat 09:14:12 PM 34.8289 -118.8869 330° Northwest 427 491 32,000  Level Los Angeles Center
Sat 09:15:14 PM 34.9136 -118.9708 321° Northwest 421 484 32,000  Level Los Angeles Center
Sat 09:16:15 PM 35.0047 -119.0597 321° Northwest 420 483 32,000  Level Los Angeles Center
Sat 09:17:16 PM 35.0972 -119.1475 322° Northwest 421 484 32,000  Level Los Angeles Center
Sat 09:18:18 PM 35.1883 -119.2389 321° Northwest 422 486 32,000  Level Los Angeles Center
Sat 09:19:19 PM 35.2994 -119.3475 321° Northwest 427 491 32,000  Level Los Angeles Center
Sat 09:20:20 PM 35.3900 -119.4375 321° Northwest 425 489 32,000  Level Los Angeles Center
Sat 09:21:21 PM 35.4775 -119.5247 321° Northwest 423 487 32,000  Level Los Angeles Center
Sat 09:22:23 PM 35.5697 -119.6150 321° Northwest 424 488 32,000  Level Los Angeles Center
Sat 09:23:24 PM 35.6594 -119.7047 321° Northwest 422 486 32,000  Level Los Angeles Center
Sat 09:24:25 PM 35.7497 -119.7953 321° Northwest 421 484 32,000  Level Los Angeles Center
Sat 09:25:26 PM 35.8400 -119.8861 321° Northwest 422 486 32,000  Level Los Angeles Center
Sat 09:26:28 PM 35.9297 -119.9761 321° Northwest 420 483 32,000  Level Los Angeles Center
Sat 09:27:29 PM 36.0372 -120.0850 321° Northwest 419 482 32,000  Level Los Angeles Center
Sat 09:28:30 PM 36.1269 -120.1767 320° Northwest 420 483 32,000  Level Los Angeles Center
Sat 09:29:32 PM 36.2164 -120.2675 321° Northwest 419 482 32,000  Level Los Angeles Center
Sat 09:30:52 PM 36.3314 -120.3825 321° Northwest 419 482 32,000  Level Oakland Center
Sat 09:31:53 PM 36.4219 -120.4769 320° Northwest 421 484 32,000  Level Oakland Center
Sat 09:32:54 PM 36.5122 -120.5706 320° Northwest 422 486 32,000 -1,131 Level Oakland Center
Sat 09:33:55 PM 36.6025 -120.6619 321° Northwest 422 486 29,700 -2,727 Descending Oakland Center
Sat 09:34:55 PM 36.7103 -120.7758 320° Northwest 422 486 26,500 -2,579 Descending Oakland Center
Sat 09:35:56 PM 36.7775 -120.8525 318° Northwest 401 461 24,500 -2,213 Descending Oakland Center
Sat 09:36:57 PM 36.8689 -120.9561 318° Northwest 382 440 22,000 -2,311 Descending Oakland Center
Sat 09:37:58 PM 36.9447 -121.0444 317° Northwest 374 430 19,800 -2,115 Descending Oakland Center
Sat 09:38:59 PM 37.0178 -121.1264 318° Northwest 358 412 17,700 -2,083 Descending Oakland Center
Sat 09:39:59 PM 37.0903 -121.2100 317° Northwest 353 406 15,600 -2,182 Descending Oakland Center
Sat 09:41:00 PM 37.1622 -121.2958 316° Northwest 355 409 13,300 -2,164 Descending Oakland Center
Sat 09:42:01 PM 37.2344 -121.3767 318° Northwest 353 406 11,200 -1,623 Descending Oakland Center
Sat 09:43:02 PM 37.3028 -121.4581 317° Northwest 348 400 10,000 -1,131 Descending Oakland Center
Sat 09:44:03 PM 37.3592 -121.5250 317° Northwest 312 359 8,900 -1,393 Descending Oakland Center
Sat 09:44:54 PM 37.4000 -121.5833 311° West 273 314 7,400 -1,351 Descending Northern Cal TRACON
Sat 09:45:54 PM 37.4667 -121.6500 322° Northwest 265 305 6,400 -737 Descending Northern Cal TRACON
Sat 09:46:48 PM 37.4833 -121.7167 288° West 241 277 6,000 -421 Descending Northern Cal TRACON
Sat 09:47:48 PM 37.5000 -121.8000 284° West 244 281 5,600 -476 Descending Northern Cal TRACON
Sat 09:48:54 PM 37.5167 -121.8833 284° West 228 262 5,000 -571 Descending Northern Cal TRACON
Sat 09:49:54 PM 37.5333 -121.9500 288° West 210 242 4,400 -700 Descending Northern Cal TRACON
Sat 09:50:54 PM 37.5667 -122.0167 302° West 192 221 3,600 -700 Descending Northern Cal TRACON
Sat 09:51:54 PM 37.6000 -122.0667 310° West 174 200 3,000 -579 Descending Northern Cal TRACON
Sat 09:52:48 PM 37.6333 -122.1000 322° Northwest 167 192 2,500 -737 Descending Northern Cal TRACON
Sat 09:53:48 PM 37.6500 -122.1500 293° West 152 175 1,600 -800 Descending Northern Cal TRACON
Sat 09:54:48 PM 37.6833 -122.1833 322° Northwest 136 157 900 -700 Descending Northern Cal TRACON
Sat 09:58:00 PM 37.7167 -122.2167 270° West  Level FlightAware Approximate

Login

Don't have an account? Register now (free) for customized features, flight alerts, and more!